sensor_id;sensor_type;location;lat;lon;timestamp;pressure;altitude;pressure_sealevel;temperature;humidity
71559;BME280;59382;43.852;25.952;2023-05-20T00:01:54;101518.38;;;20.49;55.66
71559;BME280;59382;43.852;25.952;2023-05-20T00:04:20;101515.13;;;20.52;55.63
71559;BME280;59382;43.852;25.952;2023-05-20T00:06:45;101513.88;;;20.38;55.88
71559;BME280;59382;43.852;25.952;2023-05-20T00:09:11;101509.97;;;20.34;55.88
71559;BME280;59382;43.852;25.952;2023-05-20T00:11:37;101514.69;;;20.39;55.84
71559;BME280;59382;43.852;25.952;2023-05-20T00:14:02;101506.97;;;20.36;56.11
71559;BME280;59382;43.852;25.952;2023-05-20T00:16:28;101502.91;;;20.38;55.79
71559;BME280;59382;43.852;25.952;2023-05-20T00:18:53;101500.22;;;20.43;55.96
71559;BME280;59382;43.852;25.952;2023-05-20T00:21:20;101503.03;;;20.48;55.78
71559;BME280;59382;43.852;25.952;2023-05-20T00:23:47;101501.16;;;20.54;55.83
71559;BME280;59382;43.852;25.952;2023-05-20T00:26:12;101491.03;;;20.54;55.69
71559;BME280;59382;43.852;25.952;2023-05-20T00:28:38;101476.06;;;20.40;55.67
71559;BME280;59382;43.852;25.952;2023-05-20T00:31:03;101492.50;;;20.40;55.88
71559;BME280;59382;43.852;25.952;2023-05-20T00:33:29;101488.00;;;20.29;56.15
71559;BME280;59382;43.852;25.952;2023-05-20T00:35:55;101501.66;;;20.24;56.45
71559;BME280;59382;43.852;25.952;2023-05-20T00:38:20;101492.84;;;20.22;56.58
71559;BME280;59382;43.852;25.952;2023-05-20T00:40:46;101497.50;;;20.22;56.74
71559;BME280;59382;43.852;25.952;2023-05-20T00:43:11;101483.41;;;20.13;56.80
71559;BME280;59382;43.852;25.952;2023-05-20T00:45:37;101480.09;;;20.11;56.81
71559;BME280;59382;43.852;25.952;2023-05-20T00:48:03;101474.78;;;20.05;56.95
71559;BME280;59382;43.852;25.952;2023-05-20T00:50:30;101478.91;;;20.07;57.10
71559;BME280;59382;43.852;25.952;2023-05-20T00:52:56;101469.00;;;20.01;57.09
71559;BME280;59382;43.852;25.952;2023-05-20T00:55:23;101476.19;;;20.07;57.09
71559;BME280;59382;43.852;25.952;2023-05-20T00:57:49;101487.25;;;20.12;56.97
71559;BME280;59382;43.852;25.952;2023-05-20T01:00:16;101468.50;;;20.04;56.92
71559;BME280;59382;43.852;25.952;2023-05-20T01:02:41;101471.78;;;20.06;57.16
71559;BME280;59382;43.852;25.952;2023-05-20T01:05:07;101478.41;;;20.10;57.15
71559;BME280;59382;43.852;25.952;2023-05-20T01:07:32;101460.53;;;20.03;57.22
71559;BME280;59382;43.852;25.952;2023-05-20T01:09:58;101473.75;;;20.11;57.12
71559;BME280;59382;43.852;25.952;2023-05-20T01:12:30;101470.69;;;20.07;57.31
71559;BME280;59382;43.852;25.952;2023-05-20T01:15:07;101459.63;;;19.97;57.38
71559;BME280;59382;43.852;25.952;2023-05-20T01:18:08;101458.56;;;19.98;57.66
71559;BME280;59382;43.852;25.952;2023-05-20T01:20:27;101463.00;;;20.04;57.41
71559;BME280;59382;43.852;25.952;2023-05-20T01:22:56;101471.41;;;19.98;57.61
71559;BME280;59382;43.852;25.952;2023-05-20T01:25:23;101476.00;;;19.92;57.80
71559;BME280;59382;43.852;25.952;2023-05-20T01:27:50;101463.75;;;19.78;58.12
71559;BME280;59382;43.852;25.952;2023-05-20T01:30:17;101470.72;;;19.86;58.28
71559;BME280;59382;43.852;25.952;2023-05-20T01:33:04;101465.66;;;19.78;58.50
71559;BME280;59382;43.852;25.952;2023-05-20T01:35:32;101473.56;;;19.74;58.50
71559;BME280;59382;43.852;25.952;2023-05-20T01:38:02;101469.63;;;19.65;58.60
71559;BME280;59382;43.852;25.952;2023-05-20T01:40:29;101473.25;;;19.71;58.57
71559;BME280;59382;43.852;25.952;2023-05-20T01:42:55;101471.25;;;19.66;58.71
71559;BME280;59382;43.852;25.952;2023-05-20T01:45:23;101467.94;;;19.64;58.86
71559;BME280;59382;43.852;25.952;2023-05-20T01:47:49;101485.66;;;19.78;58.69
71559;BME280;59382;43.852;25.952;2023-05-20T01:50:15;101476.38;;;19.79;58.81
71559;BME280;59382;43.852;25.952;2023-05-20T01:52:40;101467.09;;;19.80;58.49
71559;BME280;59382;43.852;25.952;2023-05-20T01:55:06;101463.88;;;19.67;58.96
71559;BME280;59382;43.852;25.952;2023-05-20T01:57:32;101466.66;;;19.50;59.20
71559;BME280;59382;43.852;25.952;2023-05-20T01:59:57;101473.13;;;19.44;59.36
71559;BME280;59382;43.852;25.952;2023-05-20T02:02:23;101465.59;;;19.34;59.67
71559;BME280;59382;43.852;25.952;2023-05-20T02:04:50;101468.03;;;19.31;59.66
71559;BME280;59382;43.852;25.952;2023-05-20T02:07:17;101488.91;;;19.37;59.31
71559;BME280;59382;43.852;25.952;2023-05-20T02:09:43;101485.59;;;19.35;59.67
71559;BME280;59382;43.852;25.952;2023-05-20T02:12:09;101477.78;;;19.27;59.37
71559;BME280;59382;43.852;25.952;2023-05-20T02:14:44;101450.75;;;19.14;59.73
71559;BME280;59382;43.852;25.952;2023-05-20T02:17:10;101488.91;;;19.37;59.68
71559;BME280;59382;43.852;25.952;2023-05-20T02:19:35;101490.06;;;19.41;59.61
71559;BME280;59382;43.852;25.952;2023-05-20T02:22:01;101491.72;;;19.42;59.66
71559;BME280;59382;43.852;25.952;2023-05-20T02:24:27;101474.81;;;19.28;59.64
71559;BME280;59382;43.852;25.952;2023-05-20T02:26:52;101492.72;;;19.36;60.02
71559;BME280;59382;43.852;25.952;2023-05-20T02:29:19;101497.03;;;19.32;60.08
71559;BME280;59382;43.852;25.952;2023-05-20T02:31:47;101503.59;;;19.31;60.16
71559;BME280;59382;43.852;25.952;2023-05-20T02:34:14;101501.34;;;19.28;60.49
71559;BME280;59382;43.852;25.952;2023-05-20T02:36:40;101489.53;;;19.11;60.57
71559;BME280;59382;43.852;25.952;2023-05-20T02:39:05;101493.38;;;19.10;60.62
71559;BME280;59382;43.852;25.952;2023-05-20T02:41:31;101503.16;;;19.06;60.76
71559;BME280;59382;43.852;25.952;2023-05-20T02:43:56;101504.69;;;19.02;61.04
71559;BME280;59382;43.852;25.952;2023-05-20T02:46:22;101504.16;;;19.00;60.93
71559;BME280;59382;43.852;25.952;2023-05-20T02:48:47;101506.63;;;19.01;61.13
71559;BME280;59382;43.852;25.952;2023-05-20T02:51:13;101514.38;;;18.93;61.27
71559;BME280;59382;43.852;25.952;2023-05-20T02:53:38;101500.88;;;18.70;61.52
71559;BME280;59382;43.852;25.952;2023-05-20T02:56:04;101513.44;;;18.71;61.59
71559;BME280;59382;43.852;25.952;2023-05-20T02:58:30;101525.47;;;18.70;61.84
71559;BME280;59382;43.852;25.952;2023-05-20T03:00:55;101517.94;;;18.77;61.71
71559;BME280;59382;43.852;25.952;2023-05-20T03:03:24;101512.81;;;18.80;61.55
71559;BME280;59382;43.852;25.952;2023-05-20T03:05:51;101519.38;;;18.96;61.33
71559;BME280;59382;43.852;25.952;2023-05-20T03:08:19;101495.66;;;18.85;61.19
71559;BME280;59382;43.852;25.952;2023-05-20T03:10:44;101527.19;;;19.04;61.22
71559;BME280;59382;43.852;25.952;2023-05-20T03:13:10;101523.94;;;19.07;60.89
71559;BME280;59382;43.852;25.952;2023-05-20T03:15:38;101502.97;;;18.96;60.99
71559;BME280;59382;43.852;25.952;2023-05-20T03:18:05;101523.03;;;19.01;61.09
71559;BME280;59382;43.852;25.952;2023-05-20T03:20:31;101527.69;;;19.01;61.44
71559;BME280;59382;43.852;25.952;2023-05-20T03:22:57;101517.38;;;18.91;61.40
71559;BME280;59382;43.852;25.952;2023-05-20T03:25:23;101512.63;;;18.87;61.55
71559;BME280;59382;43.852;25.952;2023-05-20T03:27:49;101536.63;;;18.96;61.77
71559;BME280;59382;43.852;25.952;2023-05-20T03:30:15;101532.31;;;19.00;61.49
71559;BME280;59382;43.852;25.952;2023-05-20T03:32:41;101521.44;;;18.89;61.34
71559;BME280;59382;43.852;25.952;2023-05-20T03:35:07;101535.72;;;18.91;61.44
71559;BME280;59382;43.852;25.952;2023-05-20T03:37:33;101537.34;;;18.92;61.70
71559;BME280;59382;43.852;25.952;2023-05-20T03:39:59;101533.97;;;18.85;61.63
71559;BME280;59382;43.852;25.952;2023-05-20T03:42:24;101545.88;;;18.79;61.85
71559;BME280;59382;43.852;25.952;2023-05-20T03:44:50;101535.31;;;18.71;62.02
71559;BME280;59382;43.852;25.952;2023-05-20T03:47:15;101556.81;;;18.79;62.12
71559;BME280;59382;43.852;25.952;2023-05-20T03:49:41;101543.88;;;18.74;62.21
71559;BME280;59382;43.852;25.952;2023-05-20T03:52:06;101544.53;;;18.81;62.03
71559;BME280;59382;43.852;25.952;2023-05-20T03:54:32;101548.69;;;18.84;62.23
71559;BME280;59382;43.852;25.952;2023-05-20T03:57:00;101537.75;;;18.84;62.08
71559;BME280;59382;43.852;25.952;2023-05-20T03:59:27;101548.41;;;18.97;61.89
71559;BME280;59382;43.852;25.952;2023-05-20T04:01:53;101527.81;;;18.94;61.51
71559;BME280;59382;43.852;25.952;2023-05-20T04:04:19;101546.91;;;19.06;61.45
71559;BME280;59382;43.852;25.952;2023-05-20T04:06:44;101551.47;;;19.17;61.26
71559;BME280;59382;43.852;25.952;2023-05-20T04:09:10;101554.88;;;19.24;60.99
71559;BME280;59382;43.852;25.952;2023-05-20T04:11:36;101535.06;;;19.17;61.31
71559;BME280;59382;43.852;25.952;2023-05-20T04:14:02;101550.13;;;19.31;60.86
71559;BME280;59382;43.852;25.952;2023-05-20T04:16:27;101542.47;;;19.33;60.96
71559;BME280;59382;43.852;25.952;2023-05-20T04:18:54;101550.78;;;19.38;60.94
71559;BME280;59382;43.852;25.952;2023-05-20T04:21:23;101546.13;;;19.38;60.95
71559;BME280;59382;43.852;25.952;2023-05-20T04:23:48;101561.13;;;19.36;60.89
71559;BME280;59382;43.852;25.952;2023-05-20T04:26:14;101562.72;;;19.32;61.01
71559;BME280;59382;43.852;25.952;2023-05-20T04:28:39;101548.69;;;19.28;60.99
71559;BME280;59382;43.852;25.952;2023-05-20T04:31:06;101551.28;;;19.35;61.00
71559;BME280;59382;43.852;25.952;2023-05-20T04:33:32;101552.91;;;19.36;60.72
71559;BME280;59382;43.852;25.952;2023-05-20T04:35:58;101566.19;;;19.44;60.72
71559;BME280;59382;43.852;25.952;2023-05-20T04:38:24;101547.53;;;19.41;60.66
71559;BME280;59382;43.852;25.952;2023-05-20T04:40:59;101556.66;;;19.46;60.50
71559;BME280;59382;43.852;25.952;2023-05-20T04:43:26;101546.03;;;19.33;60.63
71559;BME280;59382;43.852;25.952;2023-05-20T04:45:56;101560.13;;;19.42;60.54
71559;BME280;59382;43.852;25.952;2023-05-20T04:48:22;101560.06;;;19.37;60.48
71559;BME280;59382;43.852;25.952;2023-05-20T04:50:48;101557.34;;;19.25;60.76
71559;BME280;59382;43.852;25.952;2023-05-20T04:53:14;101568.53;;;19.35;60.92
71559;BME280;59382;43.852;25.952;2023-05-20T04:55:41;101580.38;;;19.41;60.68
71559;BME280;59382;43.852;25.952;2023-05-20T04:58:08;101552.91;;;19.36;60.67
71559;BME280;59382;43.852;25.952;2023-05-20T05:00:40;101566.34;;;19.54;60.48
71559;BME280;59382;43.852;25.952;2023-05-20T05:03:06;101569.84;;;19.66;60.31
71559;BME280;59382;43.852;25.952;2023-05-20T05:05:36;101564.75;;;19.75;59.73
71559;BME280;59382;43.852;25.952;2023-05-20T05:08:03;101554.97;;;19.79;59.80
71559;BME280;59382;43.852;25.952;2023-05-20T05:10:29;101563.16;;;19.95;59.46
71559;BME280;59382;43.852;25.952;2023-05-20T05:12:54;101559.91;;;19.98;59.12
71559;BME280;59382;43.852;25.952;2023-05-20T05:15:20;101578.81;;;20.16;58.98
71559;BME280;59382;43.852;25.952;2023-05-20T05:17:45;101566.78;;;20.17;58.85
71559;BME280;59382;43.852;25.952;2023-05-20T05:20:11;101577.78;;;20.22;58.88
71559;BME280;59382;43.852;25.952;2023-05-20T05:22:36;101582.78;;;20.25;58.69
71559;BME280;59382;43.852;25.952;2023-05-20T05:25:04;101584.94;;;20.23;59.01
71559;BME280;59382;43.852;25.952;2023-05-20T05:27:31;101587.50;;;20.30;58.82
71559;BME280;59382;43.852;25.952;2023-05-20T05:29:56;101590.31;;;20.35;58.72
71559;BME280;59382;43.852;25.952;2023-05-20T05:32:22;101587.94;;;20.43;58.63
71559;BME280;59382;43.852;25.952;2023-05-20T05:34:48;101576.41;;;20.41;58.50
71559;BME280;59382;43.852;25.952;2023-05-20T05:37:13;101573.03;;;20.34;58.55
71559;BME280;59382;43.852;25.952;2023-05-20T05:39:39;101584.50;;;20.31;58.76
71559;BME280;59382;43.852;25.952;2023-05-20T05:42:04;101578.88;;;20.21;59.04
71559;BME280;59382;43.852;25.952;2023-05-20T05:44:30;101592.72;;;20.31;59.03
71559;BME280;59382;43.852;25.952;2023-05-20T05:46:56;101571.25;;;20.23;58.87
71559;BME280;59382;43.852;25.952;2023-05-20T05:49:21;101590.94;;;20.42;58.82
71559;BME280;59382;43.852;25.952;2023-05-20T05:51:47;101577.88;;;20.27;58.69
71559;BME280;59382;43.852;25.952;2023-05-20T05:54:12;101588.66;;;20.34;58.94
71559;BME280;59382;43.852;25.952;2023-05-20T05:56:38;101574.19;;;20.38;58.83
71559;BME280;59382;43.852;25.952;2023-05-20T05:59:04;101593.50;;;20.48;58.82
71559;BME280;59382;43.852;25.952;2023-05-20T06:01:29;101593.56;;;20.53;58.50
71559;BME280;59382;43.852;25.952;2023-05-20T06:03:55;101594.72;;;20.57;58.31
71559;BME280;59382;43.852;25.952;2023-05-20T06:06:21;101584.56;;;20.58;58.33
71559;BME280;59382;43.852;25.952;2023-05-20T06:08:46;101573.28;;;20.54;58.37
71559;BME280;59382;43.852;25.952;2023-05-20T06:11:12;101587.63;;;20.61;58.24
71559;BME280;59382;43.852;25.952;2023-05-20T06:13:37;101580.41;;;20.55;58.32
71559;BME280;59382;43.852;25.952;2023-05-20T06:16:03;101588.03;;;20.48;58.78
71559;BME280;59382;43.852;25.952;2023-05-20T06:18:29;101612.13;;;20.68;58.86
71559;BME280;59382;43.852;25.952;2023-05-20T06:20:58;101599.13;;;21.06;58.52
71559;BME280;59382;43.852;25.952;2023-05-20T06:23:24;101623.72;;;21.55;57.58
71559;BME280;59382;43.852;25.952;2023-05-20T06:25:56;101605.41;;;21.60;56.98
71559;BME280;59382;43.852;25.952;2023-05-20T06:28:23;101612.28;;;21.63;56.67
71559;BME280;59382;43.852;25.952;2023-05-20T06:30:48;101612.94;;;21.75;56.80
71559;BME280;59382;43.852;25.952;2023-05-20T06:33:14;101632.50;;;22.20;56.24
71559;BME280;59382;43.852;25.952;2023-05-20T06:35:39;101608.44;;;22.47;55.13
71559;BME280;59382;43.852;25.952;2023-05-20T06:38:05;101608.84;;;22.75;54.96
71559;BME280;59382;43.852;25.952;2023-05-20T06:40:31;101609.78;;;23.06;54.41
71559;BME280;59382;43.852;25.952;2023-05-20T06:42:56;101605.44;;;23.35;53.83
71559;BME280;59382;43.852;25.952;2023-05-20T06:45:22;101606.28;;;23.46;53.20
71559;BME280;59382;43.852;25.952;2023-05-20T06:47:47;101603.22;;;23.42;53.21
71559;BME280;59382;43.852;25.952;2023-05-20T06:50:14;101598.28;;;23.49;53.08
71559;BME280;59382;43.852;25.952;2023-05-20T06:52:40;101604.34;;;23.46;52.81
71559;BME280;59382;43.852;25.952;2023-05-20T06:55:06;101596.03;;;23.21;53.25
71559;BME280;59382;43.852;25.952;2023-05-20T06:57:32;101582.78;;;23.03;53.52
71559;BME280;59382;43.852;25.952;2023-05-20T07:00:02;101583.06;;;23.01;53.05
71559;BME280;59382;43.852;25.952;2023-05-20T07:02:28;101577.25;;;22.93;53.23
71559;BME280;59382;43.852;25.952;2023-05-20T07:04:53;101577.28;;;22.98;53.00
71559;BME280;59382;43.852;25.952;2023-05-20T07:07:19;101548.63;;;22.79;52.41
71559;BME280;59382;43.852;25.952;2023-05-20T07:09:44;101571.19;;;22.86;52.14
71559;BME280;59382;43.852;25.952;2023-05-20T07:12:10;101566.22;;;22.73;52.08
71559;BME280;59382;43.852;25.952;2023-05-20T07:14:35;101579.94;;;22.68;51.90
71559;BME280;59382;43.852;25.952;2023-05-20T07:17:01;101569.97;;;22.52;51.71
71559;BME280;59382;43.852;25.952;2023-05-20T07:19:26;101570.47;;;22.39;51.52
71559;BME280;59382;43.852;25.952;2023-05-20T07:21:52;101571.22;;;22.24;51.42
71559;BME280;59382;43.852;25.952;2023-05-20T07:24:17;101556.59;;;22.14;51.47
71559;BME280;59382;43.852;25.952;2023-05-20T07:26:43;101553.75;;;21.99;51.59
71559;BME280;59382;43.852;25.952;2023-05-20T07:29:09;101562.22;;;21.87;51.96
71559;BME280;59382;43.852;25.952;2023-05-20T07:31:35;101558.31;;;21.78;52.32
71559;BME280;59382;43.852;25.952;2023-05-20T07:34:00;101556.09;;;21.75;52.60
71559;BME280;59382;43.852;25.952;2023-05-20T07:36:26;101521.69;;;21.73;52.86
71559;BME280;59382;43.852;25.952;2023-05-20T07:38:52;101491.69;;;21.61;52.79
71559;BME280;59382;43.852;25.952;2023-05-20T07:41:18;101508.69;;;21.58;52.78
71559;BME280;59382;43.852;25.952;2023-05-20T07:43:44;101506.16;;;21.47;53.20
71559;BME280;59382;43.852;25.952;2023-05-20T07:46:10;101518.78;;;21.48;53.17
71559;BME280;59382;43.852;25.952;2023-05-20T07:48:35;101509.63;;;21.32;53.52
71559;BME280;59382;43.852;25.952;2023-05-20T07:51:01;101519.75;;;21.31;53.63
71559;BME280;59382;43.852;25.952;2023-05-20T07:53:26;101513.66;;;21.24;53.62
71559;BME280;59382;43.852;25.952;2023-05-20T07:55:52;101504.34;;;21.25;53.65
71559;BME280;59382;43.852;25.952;2023-05-20T07:58:17;101497.28;;;21.34;53.69
71559;BME280;59382;43.852;25.952;2023-05-20T08:00:43;101500.88;;;21.40;53.92
71559;BME280;59382;43.852;25.952;2023-05-20T08:03:09;101470.28;;;21.21;53.90
71559;BME280;59382;43.852;25.952;2023-05-20T08:05:37;101497.28;;;21.34;54.53
71559;BME280;59382;43.852;25.952;2023-05-20T08:08:03;101492.84;;;21.28;54.70
71559;BME280;59382;43.852;25.952;2023-05-20T08:10:29;101507.72;;;21.38;54.55
71559;BME280;59382;43.852;25.952;2023-05-20T08:12:55;101511.63;;;21.47;54.57
71559;BME280;59382;43.852;25.952;2023-05-20T08:15:21;101511.63;;;21.47;54.54
71559;BME280;59382;43.852;25.952;2023-05-20T08:17:47;101511.06;;;21.45;54.37
71559;BME280;59382;43.852;25.952;2023-05-20T08:20:12;101535.84;;;21.55;54.30
71559;BME280;59382;43.852;25.952;2023-05-20T08:22:38;101545.50;;;21.57;54.27
71559;BME280;59382;43.852;25.952;2023-05-20T08:25:07;101539.22;;;21.67;54.29
71559;BME280;59382;43.852;25.952;2023-05-20T08:27:34;101529.94;;;21.73;54.23
71559;BME280;59382;43.852;25.952;2023-05-20T08:30:00;101538.28;;;21.83;54.18
71559;BME280;59382;43.852;25.952;2023-05-20T08:32:26;101533.31;;;21.80;54.05
71559;BME280;59382;43.852;25.952;2023-05-20T08:34:51;101550.97;;;21.94;54.10
71559;BME280;59382;43.852;25.952;2023-05-20T08:37:17;101579.09;;;22.06;54.13
71559;BME280;59382;43.852;25.952;2023-05-20T08:39:42;101594.03;;;22.20;54.10
71559;BME280;59382;43.852;25.952;2023-05-20T08:42:10;101583.03;;;22.25;53.88
71559;BME280;59382;43.852;25.952;2023-05-20T08:44:39;101582.22;;;22.29;53.68
71559;BME280;59382;43.852;25.952;2023-05-20T08:47:06;101596.31;;;22.38;53.58
71559;BME280;59382;43.852;25.952;2023-05-20T08:49:32;101597.69;;;22.40;53.27
71559;BME280;59382;43.852;25.952;2023-05-20T08:52:01;101577.06;;;22.43;53.15
71559;BME280;59382;43.852;25.952;2023-05-20T08:54:42;101586.78;;;22.55;53.09
71559;BME280;59382;43.852;25.952;2023-05-20T08:57:08;101590.41;;;22.71;52.66
71559;BME280;59382;43.852;25.952;2023-05-20T08:59:34;101584.63;;;22.72;52.61
71559;BME280;59382;43.852;25.952;2023-05-20T09:02:03;101588.50;;;22.76;52.35
71559;BME280;59382;43.852;25.952;2023-05-20T09:04:29;101576.09;;;22.74;52.10
71559;BME280;59382;43.852;25.952;2023-05-20T09:06:54;101566.22;;;22.83;51.89
71559;BME280;59382;43.852;25.952;2023-05-20T09:09:20;101577.78;;;22.90;51.62
71559;BME280;59382;43.852;25.952;2023-05-20T09:11:46;101578.94;;;23.09;51.31
71559;BME280;59382;43.852;25.952;2023-05-20T09:14:11;101574.56;;;23.18;51.19
71559;BME280;59382;43.852;25.952;2023-05-20T09:16:38;101563.00;;;23.26;50.88
71559;BME280;59382;43.852;25.952;2023-05-20T09:19:07;101558.06;;;23.48;50.34
71559;BME280;59382;43.852;25.952;2023-05-20T09:21:34;101548.41;;;23.66;50.14
71559;BME280;59382;43.852;25.952;2023-05-20T09:24:03;101556.94;;;23.79;49.74
71559;BME280;59382;43.852;25.952;2023-05-20T09:26:29;101553.59;;;23.97;49.48
71559;BME280;59382;43.852;25.952;2023-05-20T09:28:55;101556.31;;;24.17;49.17
71559;BME280;59382;43.852;25.952;2023-05-20T09:31:27;101545.75;;;24.34;48.55
71559;BME280;59382;43.852;25.952;2023-05-20T09:33:55;101535.81;;;24.38;48.39
71559;BME280;59382;43.852;25.952;2023-05-20T09:36:22;101525.06;;;24.32;48.32
71559;BME280;59382;43.852;25.952;2023-05-20T09:38:51;101534.75;;;24.29;48.55
71559;BME280;59382;43.852;25.952;2023-05-20T09:41:19;101535.31;;;24.21;48.76
71559;BME280;59382;43.852;25.952;2023-05-20T09:43:49;101514.94;;;24.12;48.76
71559;BME280;59382;43.852;25.952;2023-05-20T09:46:16;101524.28;;;24.21;48.92
71559;BME280;59382;43.852;25.952;2023-05-20T09:48:43;101530.88;;;24.35;48.60
71559;BME280;59382;43.852;25.952;2023-05-20T09:51:10;101524.94;;;24.62;47.94
71559;BME280;59382;43.852;25.952;2023-05-20T09:53:36;101514.88;;;24.86;47.47
71559;BME280;59382;43.852;25.952;2023-05-20T09:56:02;101512.75;;;25.12;47.04
71559;BME280;59382;43.852;25.952;2023-05-20T09:58:32;101512.03;;;25.30;46.91
71559;BME280;59382;43.852;25.952;2023-05-20T10:01:01;101497.66;;;25.33;46.74
71559;BME280;59382;43.852;25.952;2023-05-20T10:03:27;101512.50;;;25.42;46.29
71559;BME280;59382;43.852;25.952;2023-05-20T10:17:12;101500.41;;;24.99;47.02
71559;BME280;59382;43.852;25.952;2023-05-20T10:19:41;101486.91;;;24.92;47.05
71559;BME280;59382;43.852;25.952;2023-05-20T10:22:09;101497.75;;;24.89;47.19
71559;BME280;59382;43.852;25.952;2023-05-20T10:24:41;101479.94;;;24.71;46.96
71559;BME280;59382;43.852;25.952;2023-05-20T10:27:11;101483.78;;;24.70;47.53
71559;BME280;59382;43.852;25.952;2023-05-20T10:29:42;101478.84;;;24.62;47.45
71559;BME280;59382;43.852;25.952;2023-05-20T10:32:08;101467.84;;;24.57;47.55
71559;BME280;59382;43.852;25.952;2023-05-20T10:34:45;101463.88;;;24.73;47.14
71559;BME280;59382;43.852;25.952;2023-05-20T10:37:41;101472.03;;;24.93;47.10
71559;BME280;59382;43.852;25.952;2023-05-20T10:40:09;101466.09;;;25.10;46.93
71559;BME280;59382;43.852;25.952;2023-05-20T10:42:39;101446.13;;;25.18;46.68
71559;BME280;59382;43.852;25.952;2023-05-20T10:45:06;101449.03;;;25.37;46.09
71559;BME280;59382;43.852;25.952;2023-05-20T10:47:31;101419.50;;;25.32;46.05
71559;BME280;59382;43.852;25.952;2023-05-20T10:49:57;101430.63;;;25.51;45.78
71559;BME280;59382;43.852;25.952;2023-05-20T10:52:23;101425.03;;;25.56;46.03
71559;BME280;59382;43.852;25.952;2023-05-20T10:57:17;101424.28;;;25.74;46.13
71559;BME280;59382;43.852;25.952;2023-05-20T10:59:43;101411.50;;;25.78;45.84
71559;BME280;59382;43.852;25.952;2023-05-20T11:02:09;101411.38;;;25.88;45.53
71559;BME280;59382;43.852;25.952;2023-05-20T11:04:37;101397.25;;;25.89;45.75
71559;BME280;59382;43.852;25.952;2023-05-20T11:07:03;101399.03;;;26.04;45.58
71559;BME280;59382;43.852;25.952;2023-05-20T11:09:29;101365.50;;;25.87;45.34
71559;BME280;59382;43.852;25.952;2023-05-20T11:11:56;101399.03;;;26.04;45.70
71559;BME280;59382;43.852;25.952;2023-05-20T11:14:21;101398.22;;;26.03;45.44
71559;BME280;59382;43.852;25.952;2023-05-20T11:16:51;101383.06;;;25.96;45.52
71559;BME280;59382;43.852;25.952;2023-05-20T11:19:17;101368.13;;;25.97;44.86
71559;BME280;59382;43.852;25.952;2023-05-20T11:21:46;101373.72;;;25.92;45.06
71559;BME280;59382;43.852;25.952;2023-05-20T11:24:12;101369.84;;;25.93;45.10
71559;BME280;59382;43.852;25.952;2023-05-20T11:26:38;101339.78;;;25.86;44.58
71559;BME280;59382;43.852;25.952;2023-05-20T11:29:07;101358.66;;;26.03;44.86
71559;BME280;59382;43.852;25.952;2023-05-20T11:31:32;101345.38;;;26.05;44.62
71559;BME280;59382;43.852;25.952;2023-05-20T11:33:59;101343.19;;;26.02;44.22
71559;BME280;59382;43.852;25.952;2023-05-20T11:36:29;101337.38;;;26.03;43.93
71559;BME280;59382;43.852;25.952;2023-05-20T11:38:58;101343.63;;;26.09;43.45
71559;BME280;59382;43.852;25.952;2023-05-20T11:41:26;101342.53;;;26.10;43.96
71559;BME280;59382;43.852;25.952;2023-05-20T11:43:58;101338.63;;;26.11;43.63
71559;BME280;59382;43.852;25.952;2023-05-20T11:46:24;101338.34;;;26.12;43.94
71559;BME280;59382;43.852;25.952;2023-05-20T11:48:55;101324.44;;;25.99;43.70
71559;BME280;59382;43.852;25.952;2023-05-20T11:51:26;101324.75;;;25.92;43.94
71559;BME280;59382;43.852;25.952;2023-05-20T11:53:52;101302.69;;;25.69;43.70
71559;BME280;59382;43.852;25.952;2023-05-20T11:56:19;101329.75;;;25.72;43.87
71559;BME280;59382;43.852;25.952;2023-05-20T11:58:45;101329.91;;;25.62;44.08
71559;BME280;59382;43.852;25.952;2023-05-20T12:01:13;101306.94;;;25.43;44.80
71559;BME280;59382;43.852;25.952;2023-05-20T12:03:39;101300.41;;;25.34;44.65
71559;BME280;59382;43.852;25.952;2023-05-20T12:06:04;101306.50;;;25.31;45.18
71559;BME280;59382;43.852;25.952;2023-05-20T12:08:32;101303.31;;;25.19;45.67
71559;BME280;59382;43.852;25.952;2023-05-20T12:10:58;101306.38;;;25.17;45.95
71559;BME280;59382;43.852;25.952;2023-05-20T12:13:23;101303.78;;;25.26;45.62
71559;BME280;59382;43.852;25.952;2023-05-20T12:15:52;101300.97;;;25.31;45.85
71559;BME280;59382;43.852;25.952;2023-05-20T12:18:17;101285.47;;;25.35;45.76
71559;BME280;59382;43.852;25.952;2023-05-20T12:20:43;101279.34;;;25.38;45.60
71559;BME280;59382;43.852;25.952;2023-05-20T12:23:08;101273.41;;;25.49;45.92
71559;BME280;59382;43.852;25.952;2023-05-20T12:25:36;101276.25;;;25.63;46.11
71559;BME280;59382;43.852;25.952;2023-05-20T12:28:02;101275.59;;;25.71;46.27
71559;BME280;59382;43.852;25.952;2023-05-20T12:30:28;101265.03;;;25.73;45.87
71559;BME280;59382;43.852;25.952;2023-05-20T12:32:53;101264.00;;;25.69;45.71
71559;BME280;59382;43.852;25.952;2023-05-20T12:35:25;101247.56;;;25.59;44.75
71559;BME280;59382;43.852;25.952;2023-05-20T12:37:53;101252.06;;;25.55;44.49
71559;BME280;59382;43.852;25.952;2023-05-20T12:40:19;101265.59;;;25.56;43.81
71559;BME280;59382;43.852;25.952;2023-05-20T12:42:44;101263.13;;;25.55;43.13
71559;BME280;59382;43.852;25.952;2023-05-20T12:45:10;101236.19;;;25.42;42.90
71559;BME280;59382;43.852;25.952;2023-05-20T12:47:36;101253.84;;;25.46;42.76
71559;BME280;59382;43.852;25.952;2023-05-20T12:50:02;101243.44;;;25.38;42.55
71559;BME280;59382;43.852;25.952;2023-05-20T12:52:28;101241.50;;;25.38;42.80